createdAt,value
2018-09-12T00:00:01.571Z,20.67
2018-09-12T00:01:01.595Z,20.66
2018-09-12T00:02:01.619Z,20.69
2018-09-12T00:03:01.644Z,20.75
2018-09-12T00:04:01.668Z,20.65
2018-09-12T00:05:01.692Z,20.75
2018-09-12T00:06:01.717Z,20.66
2018-09-12T00:07:01.739Z,20.67
2018-09-12T00:08:01.762Z,20.67
2018-09-12T00:09:01.788Z,20.63
2018-09-12T00:10:01.808Z,20.69
2018-09-12T00:11:01.831Z,20.62
2018-09-12T00:12:01.857Z,20.60
2018-09-12T00:13:01.882Z,20.67
2018-09-12T00:14:01.905Z,20.62
2018-09-12T00:15:01.926Z,20.66
2018-09-12T00:16:01.950Z,20.63
2018-09-12T00:17:01.975Z,20.62
2018-09-12T00:18:02.000Z,20.56
2018-09-12T00:19:02.020Z,20.59
2018-09-12T00:20:02.050Z,20.52
2018-09-12T00:21:02.076Z,20.50
2018-09-12T00:22:02.094Z,20.52
2018-09-12T00:23:02.122Z,20.65
2018-09-12T00:24:02.145Z,20.62
2018-09-12T00:25:02.167Z,20.59
2018-09-12T00:26:02.188Z,20.52
2018-09-12T00:27:02.214Z,20.50
2018-09-12T00:28:02.236Z,20.62
2018-09-12T00:29:02.258Z,20.59
2018-09-12T00:30:02.282Z,20.59
2018-09-12T00:31:02.305Z,20.58
2018-09-12T00:32:02.335Z,20.62
2018-09-12T00:33:02.352Z,20.63
2018-09-12T00:34:02.380Z,20.65
2018-09-12T00:35:02.401Z,20.63
2018-09-12T00:36:02.434Z,20.59
2018-09-12T00:37:02.447Z,20.51
2018-09-12T00:38:02.473Z,20.55
2018-09-12T00:39:02.496Z,20.48
2018-09-12T00:40:02.520Z,20.51
2018-09-12T00:41:02.543Z,20.44
2018-09-12T00:42:02.567Z,20.43
2018-09-12T00:43:02.590Z,20.37
2018-09-12T00:44:02.611Z,20.40
2018-09-12T00:45:02.635Z,20.36
2018-09-12T00:46:02.659Z,20.40
2018-09-12T00:47:02.686Z,20.41
2018-09-12T00:48:02.705Z,20.48
2018-09-12T00:49:02.732Z,20.41
2018-09-12T00:50:02.756Z,20.48
2018-09-12T00:51:02.778Z,20.50
2018-09-12T00:52:02.802Z,20.52
2018-09-12T00:53:02.823Z,20.44
2018-09-12T00:54:02.847Z,20.50
2018-09-12T00:55:02.872Z,20.47
2018-09-12T00:56:02.895Z,20.52
2018-09-12T00:57:02.919Z,20.50
2018-09-12T00:58:02.943Z,20.48
2018-09-12T00:59:02.964Z,20.51
2018-09-12T01:00:02.989Z,20.52
2018-09-12T01:01:03.014Z,20.51
2018-09-12T01:02:03.038Z,20.51
2018-09-12T01:03:03.058Z,20.52
2018-09-12T01:04:03.085Z,20.52
2018-09-12T01:05:03.108Z,20.59
2018-09-12T01:06:03.130Z,20.56
2018-09-12T01:07:03.156Z,20.63
2018-09-12T01:08:03.176Z,20.55
2018-09-12T01:09:03.200Z,20.65
2018-09-12T01:10:03.225Z,20.60
2018-09-12T01:11:03.244Z,20.65
2018-09-12T01:12:03.272Z,20.60
2018-09-12T01:13:03.292Z,20.59
2018-09-12T01:14:03.316Z,20.62
2018-09-12T01:15:03.341Z,20.59
2018-09-12T01:16:03.363Z,20.66
2018-09-12T01:17:03.387Z,20.58
2018-09-12T01:18:03.412Z,20.51
2018-09-12T01:19:03.434Z,20.47
2018-09-12T01:20:03.460Z,20.51
2018-09-12T01:21:03.483Z,20.50
2018-09-12T01:22:03.506Z,20.44
2018-09-12T01:23:03.527Z,20.50
2018-09-12T01:24:03.552Z,20.44
2018-09-12T01:25:03.574Z,20.43
2018-09-12T01:26:03.598Z,20.51
2018-09-12T01:27:03.624Z,20.48
2018-09-12T01:28:03.646Z,20.40
2018-09-12T01:29:03.670Z,20.48
2018-09-12T01:30:03.693Z,20.50
2018-09-12T01:31:03.714Z,20.47
2018-09-12T01:32:03.737Z,20.43
2018-09-12T01:33:03.764Z,20.39
2018-09-12T01:34:03.785Z,20.37
2018-09-12T01:35:03.807Z,20.34
2018-09-12T01:36:03.833Z,20.32
2018-09-12T01:37:03.858Z,20.36
2018-09-12T01:38:03.882Z,20.37
2018-09-12T01:39:04.104Z,20.39
2018-09-12T01:40:03.932Z,20.43
2018-09-12T01:41:03.952Z,20.44
2018-09-12T01:42:03.973Z,20.43
2018-09-12T01:43:03.997Z,20.37
2018-09-12T01:44:04.031Z,20.44
2018-09-12T01:45:04.042Z,20.41
2018-09-12T01:46:04.069Z,20.34
2018-09-12T01:47:04.092Z,20.39
2018-09-12T01:48:04.116Z,20.40
2018-09-12T01:49:04.140Z,20.39
2018-09-12T01:50:04.160Z,20.40
2018-09-12T01:51:04.183Z,20.37
2018-09-12T01:52:04.210Z,20.44
2018-09-12T01:53:04.233Z,20.39
2018-09-12T01:54:04.257Z,20.36
2018-09-12T01:55:04.276Z,20.37
2018-09-12T01:56:04.303Z,20.36
2018-09-12T01:57:04.325Z,20.36
2018-09-12T01:58:04.349Z,20.37
2018-09-12T01:59:04.370Z,20.39
2018-09-12T02:00:04.397Z,20.34
2018-09-12T02:01:04.419Z,20.34
2018-09-12T02:02:04.443Z,20.31
2018-09-12T02:03:04.467Z,20.28
2018-09-12T02:04:04.491Z,20.25
2018-09-12T02:05:04.511Z,20.25
2018-09-12T02:06:04.538Z,20.24
2018-09-12T02:07:04.557Z,20.26
2018-09-12T02:08:04.584Z,20.24
2018-09-12T02:09:04.604Z,20.24
2018-09-12T02:10:04.628Z,20.22
2018-09-12T02:11:04.652Z,20.24
2018-09-12T02:12:04.676Z,20.25
2018-09-12T02:13:04.700Z,20.22
2018-09-12T02:14:04.725Z,20.24
2018-09-12T02:15:04.747Z,20.22
2018-09-12T02:16:04.769Z,20.24
2018-09-12T02:17:04.793Z,20.25
2018-09-12T02:18:04.815Z,20.22
2018-09-12T02:19:04.862Z,20.25
2018-09-12T02:20:04.862Z,20.21
2018-09-12T02:21:04.887Z,20.18
2018-09-12T02:22:04.913Z,20.24
2018-09-12T02:23:04.932Z,20.14
2018-09-12T02:24:04.961Z,20.24
2018-09-12T02:25:04.981Z,20.11
2018-09-12T02:26:05.004Z,20.18
2018-09-12T02:27:05.028Z,20.11
2018-09-12T02:28:05.054Z,20.26
2018-09-12T02:29:05.074Z,20.22
2018-09-12T02:30:05.098Z,20.25
2018-09-12T02:31:05.122Z,20.11
2018-09-12T02:32:05.144Z,20.21
2018-09-12T02:33:05.168Z,20.14
2018-09-12T02:34:05.191Z,20.11
2018-09-12T02:35:05.215Z,20.16
2018-09-12T02:36:05.237Z,20.14
2018-09-12T02:37:05.260Z,20.10
2018-09-12T02:38:05.284Z,20.10
2018-09-12T02:39:05.308Z,20.13
2018-09-12T02:40:05.333Z,20.22
2018-09-12T02:41:05.357Z,20.10
2018-09-12T02:42:05.380Z,20.11
2018-09-12T02:43:05.400Z,20.10
2018-09-12T02:44:05.425Z,20.19
2018-09-12T02:45:05.460Z,20.14
2018-09-12T02:46:05.473Z,20.10
2018-09-12T02:47:05.494Z,20.14
2018-09-12T02:48:05.517Z,20.16
2018-09-12T02:49:05.555Z,20.06
2018-09-12T02:50:05.569Z,20.09
2018-09-12T02:51:05.588Z,20.10
2018-09-12T02:52:05.637Z,20.16
2018-09-12T02:53:05.634Z,20.09
2018-09-12T02:54:05.658Z,20.11
2018-09-12T02:55:05.682Z,20.09
2018-09-12T02:56:05.706Z,20.09
2018-09-12T02:57:05.729Z,20.14
2018-09-12T02:58:05.751Z,20.11
2018-09-12T02:59:05.777Z,20.07
2018-09-12T03:00:05.802Z,20.11
2018-09-12T03:01:05.823Z,20.09
2018-09-12T03:02:05.848Z,20.10
2018-09-12T03:03:05.870Z,20.11
2018-09-12T03:04:05.892Z,20.13
2018-09-12T03:05:05.914Z,20.13
2018-09-12T03:06:06.039Z,20.13
2018-09-12T03:07:05.963Z,20.02
2018-09-12T03:08:05.987Z,20.11
2018-09-12T03:09:06.020Z,20.10
2018-09-12T03:10:06.040Z,20.11
2018-09-12T03:11:06.063Z,20.10
2018-09-12T03:12:06.078Z,20.07
2018-09-12T03:13:06.109Z,20.11
2018-09-12T03:14:06.125Z,20.09
2018-09-12T03:15:06.149Z,20.04
2018-09-12T03:16:06.175Z,19.99
2018-09-12T03:17:06.197Z,20.07
2018-09-12T03:18:06.220Z,20.00
2018-09-12T03:19:06.243Z,20.00
2018-09-12T03:20:06.265Z,20.09
2018-09-12T03:21:06.403Z,20.07
2018-09-12T03:22:06.314Z,20.00
2018-09-12T03:23:06.334Z,20.09
2018-09-12T03:24:06.359Z,20.03
2018-09-12T03:25:06.381Z,20.00
2018-09-12T03:26:06.404Z,20.02
2018-09-12T03:27:06.427Z,20.00
2018-09-12T03:28:06.450Z,20.11
2018-09-12T03:29:06.474Z,20.04
2018-09-12T03:30:06.500Z,20.02
2018-09-12T03:31:06.520Z,19.99
2018-09-12T03:32:06.546Z,19.99
2018-09-12T03:33:06.568Z,20.03
2018-09-12T03:34:06.592Z,19.94
2018-09-12T03:35:06.617Z,19.94
2018-09-12T03:36:06.652Z,19.95
2018-09-12T03:37:06.660Z,19.91
2018-09-12T03:38:06.684Z,19.88
2018-09-12T03:39:06.706Z,20.02
2018-09-12T03:40:06.732Z,19.88
2018-09-12T03:41:06.755Z,19.99
2018-09-12T03:42:06.776Z,19.94
2018-09-12T03:43:06.801Z,19.91
2018-09-12T03:44:06.824Z,20.00
2018-09-12T03:45:06.845Z,19.94
2018-09-12T03:46:06.871Z,19.89
2018-09-12T03:47:06.892Z,19.84
2018-09-12T03:48:06.967Z,19.85
2018-09-12T03:49:06.940Z,19.95
2018-09-12T03:50:06.964Z,19.86
2018-09-12T03:51:06.988Z,19.85
2018-09-12T03:52:07.011Z,19.85
2018-09-12T03:53:07.032Z,19.77
2018-09-12T03:54:07.058Z,19.77
2018-09-12T03:55:07.079Z,19.86
2018-09-12T03:56:07.101Z,19.76
2018-09-12T03:57:07.124Z,19.79
2018-09-12T03:58:07.149Z,19.76
2018-09-12T03:59:07.169Z,19.79
2018-09-12T04:00:07.193Z,19.73
2018-09-12T04:01:07.216Z,19.77
2018-09-12T04:02:07.242Z,19.58
2018-09-12T04:03:07.267Z,19.54
2018-09-12T04:04:07.289Z,19.67
2018-09-12T04:05:07.317Z,19.62
2018-09-12T04:06:07.336Z,19.63
2018-09-12T04:07:07.354Z,19.62
2018-09-12T04:08:07.377Z,19.56
2018-09-12T04:09:07.403Z,19.59
2018-09-12T04:10:07.424Z,19.56
2018-09-12T04:11:07.449Z,19.62
2018-09-12T04:12:07.470Z,19.62
2018-09-12T04:13:07.495Z,19.58
2018-09-12T04:14:07.520Z,19.64
2018-09-12T04:15:07.554Z,19.58
2018-09-12T04:16:07.563Z,19.63
2018-09-12T04:17:07.588Z,19.56
2018-09-12T04:18:07.608Z,19.63
2018-09-12T04:19:07.638Z,19.64
2018-09-12T04:20:07.657Z,19.49
2018-09-12T04:21:07.679Z,19.49
2018-09-12T04:22:07.700Z,19.56
2018-09-12T04:23:07.722Z,19.52
2018-09-12T04:24:07.779Z,19.45
2018-09-12T04:25:07.768Z,19.52
2018-09-12T04:26:07.793Z,19.51
2018-09-12T04:27:07.814Z,19.49
2018-09-12T04:28:07.838Z,19.47
2018-09-12T04:29:07.863Z,19.37
2018-09-12T04:30:07.889Z,19.48
2018-09-12T04:31:07.909Z,19.56
2018-09-12T04:32:07.931Z,19.52
2018-09-12T04:33:07.951Z,19.52
2018-09-12T04:34:07.974Z,19.37
2018-09-12T04:35:08.000Z,19.41
2018-09-12T04:36:08.023Z,19.52
2018-09-12T04:37:08.045Z,19.49
2018-09-12T04:38:08.068Z,19.37
2018-09-12T04:39:08.191Z,19.51
2018-09-12T04:40:08.111Z,19.51
2018-09-12T04:41:08.137Z,19.49
2018-09-12T04:42:08.158Z,19.55
2018-09-12T04:43:08.180Z,19.45
2018-09-12T04:44:08.204Z,19.54
2018-09-12T04:45:08.226Z,19.62
2018-09-12T04:46:08.251Z,19.59
2018-09-12T04:47:08.271Z,19.62
2018-09-12T04:48:08.297Z,19.63
2018-09-12T04:49:08.316Z,19.62
2018-09-12T04:50:08.344Z,19.58
2018-09-12T04:51:08.363Z,19.59
2018-09-12T04:52:08.388Z,19.58
2018-09-12T04:53:08.414Z,19.58
2018-09-12T04:54:08.432Z,19.55
2018-09-12T04:55:08.455Z,19.63
2018-09-12T04:56:08.479Z,19.58
2018-09-12T04:57:08.500Z,19.55
2018-09-12T04:58:08.527Z,19.58
2018-09-12T04:59:08.548Z,19.58
2018-09-12T05:00:08.572Z,19.59
2018-09-12T05:01:08.592Z,19.64
2018-09-12T05:02:08.616Z,19.59
2018-09-12T05:03:08.638Z,19.56
2018-09-12T05:04:08.664Z,19.58
2018-09-12T05:05:08.684Z,19.62
2018-09-12T05:06:08.711Z,19.56
2018-09-12T05:07:08.732Z,19.62
2018-09-12T05:08:08.753Z,19.54
2018-09-12T05:09:08.776Z,19.59
2018-09-12T05:10:08.834Z,19.69
2018-09-12T05:11:08.822Z,19.63
2018-09-12T05:12:08.846Z,19.62
2018-09-12T05:13:08.870Z,19.58
2018-09-12T05:14:08.890Z,19.62
2018-09-12T05:15:08.913Z,19.58
2018-09-12T05:16:08.940Z,19.67
2018-09-12T05:17:08.961Z,19.52
2018-09-12T05:18:08.983Z,19.59
2018-09-12T05:19:09.005Z,19.62
2018-09-12T05:20:09.031Z,19.58
2018-09-12T05:21:09.053Z,19.63
2018-09-12T05:22:09.074Z,19.67
2018-09-12T05:23:09.097Z,19.66
2018-09-12T05:24:09.122Z,19.58
2018-09-12T05:25:09.143Z,19.64
2018-09-12T05:26:09.168Z,19.73
2018-09-12T05:27:09.188Z,19.63
2018-09-12T05:28:09.217Z,19.64
2018-09-12T05:29:09.235Z,19.63
2018-09-12T05:30:09.262Z,19.63
2018-09-12T05:31:09.282Z,19.66
2018-09-12T05:32:09.303Z,19.58
2018-09-12T05:33:09.327Z,19.62
2018-09-12T05:34:09.352Z,19.66
2018-09-12T05:35:09.372Z,19.73
2018-09-12T05:36:09.402Z,19.76
2018-09-12T05:37:09.419Z,19.74
2018-09-12T05:38:09.444Z,19.70
2018-09-12T05:39:09.464Z,19.71
2018-09-12T05:40:09.486Z,19.66
2018-09-12T05:41:09.511Z,19.62
2018-09-12T05:42:09.533Z,19.63
2018-09-12T05:43:09.555Z,19.74
2018-09-12T05:44:09.580Z,19.71
2018-09-12T05:45:09.602Z,19.67
2018-09-12T05:46:09.628Z,19.67
2018-09-12T05:47:09.649Z,19.59
2018-09-12T05:48:09.673Z,19.63
2018-09-12T05:49:09.695Z,19.62
2018-09-12T05:50:09.745Z,19.55
2018-09-12T05:51:09.842Z,19.55
2018-09-12T05:52:09.765Z,19.58
2018-09-12T05:53:09.785Z,19.62
2018-09-12T05:54:09.812Z,19.56
2018-09-12T05:55:09.832Z,19.71
2018-09-12T05:56:10.193Z,19.73
2018-09-12T05:57:09.877Z,19.71
2018-09-12T05:58:09.902Z,19.79
2018-09-12T05:59:09.923Z,19.74
2018-09-12T06:00:09.949Z,19.82
2018-09-12T06:01:09.972Z,19.70
2018-09-12T06:02:09.994Z,19.73
2018-09-12T06:03:10.016Z,19.76
2018-09-12T06:04:10.037Z,19.77
2018-09-12T06:05:10.063Z,19.67
2018-09-12T06:06:10.087Z,19.76
2018-09-12T06:07:10.251Z,19.77
2018-09-12T06:08:10.130Z,19.73
2018-09-12T06:09:10.154Z,19.85
2018-09-12T06:10:10.177Z,19.82
2018-09-12T06:11:10.199Z,19.81
2018-09-12T06:12:10.224Z,19.81
2018-09-12T06:13:10.245Z,19.84
2018-09-12T06:14:10.295Z,19.86
2018-09-12T06:15:10.292Z,19.79
2018-09-12T06:16:10.317Z,19.79
2018-09-12T06:17:10.339Z,19.71
2018-09-12T06:18:10.361Z,19.81
2018-09-12T06:19:10.587Z,19.85
2018-09-12T06:20:10.410Z,19.89
2018-09-12T06:21:10.433Z,19.88
2018-09-12T06:22:10.453Z,19.86
2018-09-12T06:23:10.479Z,19.96
2018-09-12T06:24:10.501Z,19.86
2018-09-12T06:25:10.527Z,19.95
2018-09-12T06:26:10.546Z,19.94
2018-09-12T06:27:10.570Z,19.84
2018-09-12T06:28:10.592Z,19.91
2018-09-12T06:29:10.615Z,19.79
2018-09-12T06:30:10.639Z,19.81
2018-09-12T06:31:10.663Z,19.85
2018-09-12T06:32:10.686Z,19.92
2018-09-12T06:33:10.715Z,19.86
2018-09-12T06:34:10.731Z,19.89
2018-09-12T06:35:10.757Z,19.86
2018-09-12T06:36:10.781Z,19.94
2018-09-12T06:37:10.803Z,19.92
2018-09-12T06:38:10.857Z,19.92
2018-09-12T06:39:10.880Z,19.96
2018-09-12T06:40:10.870Z,19.96
2018-09-12T06:41:10.896Z,19.96
2018-09-12T06:42:10.917Z,20.00
2018-09-12T06:43:10.943Z,20.03
2018-09-12T06:44:10.963Z,19.95
2018-09-12T06:45:10.992Z,19.95
2018-09-12T06:46:11.009Z,19.95
2018-09-12T06:47:11.034Z,19.96
2018-09-12T06:48:11.062Z,19.84
2018-09-12T06:49:11.081Z,19.89
2018-09-12T06:50:11.106Z,19.89
2018-09-12T06:51:11.131Z,19.95
2018-09-12T06:52:11.151Z,20.00
2018-09-12T06:53:11.176Z,20.00
2018-09-12T06:54:11.198Z,20.00
2018-09-12T06:55:11.221Z,20.09
2018-09-12T06:56:11.242Z,20.10
2018-09-12T06:57:11.267Z,20.11
2018-09-12T06:58:11.290Z,20.09
2018-09-12T06:59:11.313Z,20.10
2018-09-12T07:00:11.335Z,20.11
2018-09-12T07:01:11.426Z,20.24
2018-09-12T07:02:11.385Z,20.25
2018-09-12T07:03:11.472Z,20.36
2018-09-12T07:04:11.432Z,20.21
2018-09-12T07:05:11.453Z,20.22
2018-09-12T07:06:11.561Z,20.26
2018-09-12T07:07:11.500Z,20.29
2018-09-12T07:08:11.551Z,20.36
2018-09-12T07:09:11.571Z,20.32
2018-09-12T07:10:11.575Z,20.36
2018-09-12T07:11:11.600Z,20.36
2018-09-12T07:12:11.634Z,20.19
2018-09-12T07:13:11.641Z,20.24
2018-09-12T07:14:11.738Z,20.25
2018-09-12T07:15:11.700Z,20.26
2018-09-12T07:16:11.716Z,20.25
2018-09-12T07:17:11.750Z,20.37
2018-09-12T07:18:11.761Z,20.43
2018-09-12T07:19:11.788Z,20.60
2018-09-12T07:20:11.806Z,20.59
2018-09-12T07:21:11.832Z,20.66
2018-09-12T07:22:11.856Z,20.65
2018-09-12T07:23:11.893Z,20.80
2018-09-12T07:24:11.903Z,20.88
2018-09-12T07:25:11.945Z,20.81
2018-09-12T07:26:11.973Z,20.78
2018-09-12T07:27:11.984Z,20.74
2018-09-12T07:28:12.002Z,20.66
2018-09-12T07:29:12.022Z,20.65
2018-09-12T07:30:12.045Z,20.67
2018-09-12T07:31:12.068Z,20.62
2018-09-12T07:32:12.090Z,20.52
2018-09-12T07:33:12.117Z,20.65
2018-09-12T07:34:12.158Z,20.69
2018-09-12T07:35:12.165Z,20.77
2018-09-12T07:36:12.192Z,20.74
2018-09-12T07:37:12.217Z,20.80
2018-09-12T07:38:12.237Z,20.87
2018-09-12T07:39:12.339Z,20.81
2018-09-12T07:40:12.294Z,20.90
2018-09-12T07:41:12.307Z,21.00
2018-09-12T07:42:12.353Z,20.81
2018-09-12T07:43:12.356Z,20.77
2018-09-12T07:44:12.396Z,20.77
2018-09-12T07:45:12.410Z,20.80
2018-09-12T07:46:12.427Z,20.75
2018-09-12T07:47:12.459Z,20.63
2018-09-12T07:48:12.556Z,20.69
2018-09-12T07:49:12.575Z,20.59
2018-09-12T07:50:12.677Z,20.59
2018-09-12T07:51:12.664Z,20.63
2018-09-12T07:52:12.597Z,20.74
2018-09-12T07:53:12.606Z,20.85
2018-09-12T07:54:12.665Z,20.92
2018-09-12T07:55:12.699Z,20.96
2018-09-12T07:56:12.769Z,21.03
2018-09-12T07:57:12.715Z,21.05
2018-09-12T07:58:12.776Z,21.21
2018-09-12T07:59:12.754Z,21.18
2018-09-12T08:00:13.012Z,21.21
2018-09-12T08:01:12.820Z,21.18
2018-09-12T08:02:12.811Z,21.21
2018-09-12T08:03:12.834Z,21.40
2018-09-12T08:04:12.884Z,21.40
2018-09-12T08:05:13.027Z,21.54
2018-09-12T08:06:12.918Z,21.43
2018-09-12T08:07:12.932Z,21.40
2018-09-12T08:08:12.957Z,21.46
2018-09-12T08:09:12.981Z,21.42
2018-09-12T08:10:13.002Z,21.54
2018-09-12T08:11:13.024Z,21.58
2018-09-12T08:12:13.069Z,21.57
2018-09-12T08:13:13.084Z,21.75
2018-09-12T08:14:13.097Z,21.73
2018-09-12T08:15:13.145Z,21.67
2018-09-12T08:16:13.149Z,21.58
2018-09-12T08:17:13.176Z,21.51
2018-09-12T08:18:13.198Z,21.43
2018-09-12T08:19:13.239Z,21.39
2018-09-12T08:20:13.281Z,21.43
2018-09-12T08:21:13.296Z,21.55
2018-09-12T08:22:13.319Z,21.57
2018-09-12T08:23:13.359Z,21.50
2018-09-12T08:24:13.346Z,21.43
2018-09-12T08:25:13.401Z,21.35
2018-09-12T08:26:13.447Z,21.50
2018-09-12T08:27:13.429Z,21.61
2018-09-12T08:28:13.439Z,21.55
2018-09-12T08:29:13.467Z,21.62
2018-09-12T08:30:13.528Z,21.70
2018-09-12T08:31:13.510Z,21.66
2018-09-12T08:32:13.539Z,21.58
2018-09-12T08:33:13.636Z,21.67
2018-09-12T08:34:13.609Z,21.66
2018-09-12T08:35:13.618Z,21.70
2018-09-12T08:36:13.664Z,21.82
2018-09-12T08:37:13.661Z,21.88
2018-09-12T08:38:13.789Z,21.93
2018-09-12T08:39:13.712Z,22.00
2018-09-12T08:40:14.008Z,22.07
2018-09-12T08:41:13.758Z,22.07
2018-09-12T08:42:13.883Z,22.08
2018-09-12T08:43:13.811Z,22.13
2018-09-12T08:44:13.837Z,22.14
2018-09-12T08:45:13.884Z,22.32
2018-09-12T08:46:13.898Z,22.54
2018-09-12T08:47:13.905Z,22.65
2018-09-12T08:48:13.932Z,22.70
2018-09-12T08:49:13.957Z,22.70
2018-09-12T08:50:13.982Z,22.65
2018-09-12T08:51:14.004Z,22.65
2018-09-12T08:52:14.035Z,22.54
2018-09-12T08:53:14.058Z,22.44
2018-09-12T08:54:14.104Z,22.54
2018-09-12T08:55:14.118Z,22.44
2018-09-12T08:56:14.136Z,22.45
2018-09-12T08:57:14.155Z,22.51
2018-09-12T08:58:14.198Z,22.55
2018-09-12T08:59:14.206Z,22.68
2018-09-12T09:00:14.322Z,22.66
2018-09-12T09:01:14.340Z,22.68
2018-09-12T09:02:14.282Z,22.69
2018-09-12T09:03:14.330Z,22.76
2018-09-12T09:04:14.333Z,22.87
2018-09-12T09:05:14.357Z,22.84
2018-09-12T09:06:14.389Z,22.93
2018-09-12T09:07:14.413Z,22.63
2018-09-12T09:08:14.450Z,22.63
2018-09-12T09:09:14.458Z,22.76
2018-09-12T09:10:14.513Z,22.84
2018-09-12T09:11:14.519Z,22.72
2018-09-12T09:12:14.554Z,22.75
2018-09-12T09:13:14.567Z,22.59
2018-09-12T09:14:14.585Z,22.36
2018-09-12T09:15:14.654Z,22.23
2018-09-12T09:16:14.634Z,22.15
2018-09-12T09:17:14.700Z,22.11
2018-09-12T09:18:14.707Z,21.99
2018-09-12T09:19:14.868Z,22.06
2018-09-12T09:20:14.739Z,22.08
2018-09-12T09:21:14.770Z,22.07
2018-09-12T09:22:14.789Z,22.18
2018-09-12T09:23:14.854Z,22.23
2018-09-12T09:24:14.850Z,22.32
2018-09-12T09:25:14.876Z,22.33
2018-09-12T09:26:14.892Z,22.25
2018-09-12T09:27:14.935Z,22.25
2018-09-12T09:28:14.950Z,22.17
2018-09-12T09:29:15.002Z,22.18
2018-09-12T09:30:15.001Z,22.15
2018-09-12T09:31:15.009Z,22.04
2018-09-12T09:32:15.041Z,22.06
2018-09-12T09:33:15.067Z,22.18
2018-09-12T09:34:15.089Z,22.15
2018-09-12T09:35:15.194Z,22.32
2018-09-12T09:36:15.285Z,22.28
2018-09-12T09:37:15.191Z,22.35
2018-09-12T09:38:15.198Z,22.48
2018-09-12T09:39:15.212Z,22.22
2018-09-12T09:40:15.240Z,22.17
2018-09-12T09:41:15.262Z,22.08
2018-09-12T09:42:15.297Z,22.13
2018-09-12T09:43:15.345Z,21.99
2018-09-12T09:44:15.348Z,21.85
2018-09-12T09:45:15.362Z,21.93
2018-09-12T09:46:15.396Z,21.99
2018-09-12T09:47:15.414Z,21.85
2018-09-12T09:48:15.587Z,21.83
2018-09-12T09:49:15.468Z,21.92
2018-09-12T09:50:15.489Z,22.13
2018-09-12T09:51:15.515Z,22.13
2018-09-12T09:52:15.546Z,22.15
2018-09-12T09:53:15.573Z,22.28
2018-09-12T09:54:15.586Z,22.18
2018-09-12T09:55:15.610Z,22.14
2018-09-12T09:56:15.636Z,21.95
2018-09-12T09:57:15.662Z,21.96
2018-09-12T09:58:15.688Z,22.06
2018-09-12T09:59:15.712Z,22.30
2018-09-12T10:00:15.750Z,22.39
2018-09-12T10:01:15.780Z,22.51
2018-09-12T10:02:15.789Z,22.57
2018-09-12T10:03:15.819Z,22.69
2018-09-12T10:04:15.831Z,22.66
2018-09-12T10:05:15.872Z,22.48
2018-09-12T10:06:15.885Z,22.43
2018-09-12T10:07:15.919Z,22.48
2018-09-12T10:08:15.933Z,22.48
2018-09-12T10:09:15.963Z,22.55
2018-09-12T10:10:15.996Z,22.63
2018-09-12T10:11:16.010Z,22.70
2018-09-12T10:12:16.043Z,22.87
2018-09-12T10:13:16.060Z,22.65
2018-09-12T10:14:16.085Z,22.75
2018-09-12T10:15:16.108Z,22.78
2018-09-12T10:16:16.135Z,22.84
2018-09-12T10:17:16.175Z,22.98
2018-09-12T10:18:16.181Z,22.99
2018-09-12T10:19:16.207Z,22.93
2018-09-12T10:20:16.257Z,23.03
2018-09-12T10:21:16.763Z,22.90
2018-09-12T10:22:16.290Z,22.96
2018-09-12T10:23:16.314Z,22.87
2018-09-12T10:24:16.359Z,22.75
2018-09-12T10:25:16.365Z,22.59
2018-09-12T10:26:16.409Z,22.69
2018-09-12T10:27:16.433Z,22.76
2018-09-12T10:28:16.441Z,22.93
2018-09-12T10:29:16.514Z,22.99
2018-09-12T10:30:16.497Z,22.75
2018-09-12T10:31:16.520Z,22.72
2018-09-12T10:32:16.572Z,22.44
2018-09-12T10:33:16.569Z,21.51
2018-09-12T10:34:16.592Z,21.06
2018-09-12T10:35:16.631Z,20.67
2018-09-12T10:36:16.640Z,20.37
2018-09-12T10:37:16.694Z,20.09
2018-09-12T10:38:16.701Z,19.86
2018-09-12T10:39:16.714Z,19.76
2018-09-12T10:40:16.741Z,19.71
2018-09-12T10:41:16.763Z,19.41
2018-09-12T10:42:16.797Z,19.24
2018-09-12T10:43:16.814Z,19.30
2018-09-12T10:44:16.835Z,19.07
2018-09-12T10:45:16.965Z,19.07
2018-09-12T10:46:16.895Z,18.96
2018-09-12T10:47:16.912Z,18.80
2018-09-12T10:48:16.946Z,18.77
2018-09-12T10:49:16.962Z,18.81
2018-09-12T10:50:16.999Z,18.84
2018-09-12T10:51:17.012Z,18.78
2018-09-12T10:52:17.177Z,18.73
2018-09-12T10:53:17.050Z,18.73
2018-09-12T10:54:17.081Z,18.83
2018-09-12T10:55:17.101Z,18.89
2018-09-12T10:56:17.122Z,18.81
2018-09-12T10:57:17.172Z,18.86
2018-09-12T10:58:17.170Z,18.80
2018-09-12T10:59:17.192Z,18.62
2018-09-12T11:00:17.221Z,18.78
2018-09-12T11:01:17.262Z,18.74
2018-09-12T11:02:17.324Z,18.60
2018-09-12T11:03:17.314Z,18.59
2018-09-12T11:04:17.374Z,18.65
2018-09-12T11:05:17.346Z,18.49
2018-09-12T11:06:17.355Z,18.43
2018-09-12T11:07:17.387Z,18.70
2018-09-12T11:08:17.403Z,18.77
2018-09-12T11:09:17.774Z,18.80
2018-09-12T11:10:17.595Z,19.07
2018-09-12T11:11:17.481Z,19.19
2018-09-12T11:12:17.511Z,19.16
2018-09-12T11:13:17.530Z,19.15
2018-09-12T11:14:17.547Z,19.08
2018-09-12T11:15:17.631Z,19.24
2018-09-12T11:16:17.592Z,19.15
2018-09-12T11:17:17.615Z,19.08
2018-09-12T11:18:17.727Z,19.04
2018-09-12T11:19:17.659Z,18.80
2018-09-12T11:20:17.687Z,18.71
2018-09-12T11:21:17.704Z,18.81
2018-09-12T11:22:17.739Z,18.96
2018-09-12T11:23:17.778Z,18.95
2018-09-12T11:24:17.787Z,18.84
2018-09-12T11:25:17.800Z,18.71
2018-09-12T11:26:17.860Z,18.66
2018-09-12T11:27:17.871Z,18.62
2018-09-12T11:28:17.991Z,18.66
2018-09-12T11:29:17.918Z,18.77
2018-09-12T11:30:17.989Z,18.96
2018-09-12T11:31:17.951Z,18.63
2018-09-12T11:32:17.971Z,18.53
2018-09-12T11:33:17.985Z,18.52
2018-09-12T11:34:18.093Z,18.49
2018-09-12T11:35:18.062Z,18.60
2018-09-12T11:36:18.057Z,18.77
2018-09-12T11:37:18.077Z,18.63
2018-09-12T11:38:18.112Z,18.78
2018-09-12T11:39:18.439Z,18.90
2018-09-12T11:40:18.156Z,19.04
2018-09-12T11:41:18.179Z,19.07
2018-09-12T11:42:18.193Z,19.15
2018-09-12T11:43:18.222Z,19.18
2018-09-12T11:44:18.243Z,19.19
2018-09-12T11:45:18.269Z,18.96
2018-09-12T11:46:18.289Z,19.04
2018-09-12T11:47:18.319Z,18.89
2018-09-12T11:48:18.362Z,18.78
2018-09-12T11:49:18.420Z,18.78
2018-09-12T11:50:18.538Z,18.83
2018-09-12T11:51:19.048Z,18.89
2018-09-12T11:52:18.427Z,18.89
2018-09-12T11:53:18.538Z,18.78
2018-09-12T11:54:18.536Z,18.62
2018-09-12T11:55:18.545Z,18.53
2018-09-12T11:56:18.529Z,18.62
2018-09-12T11:57:18.751Z,18.52
2018-09-12T11:58:18.575Z,18.49
2018-09-12T11:59:18.616Z,18.33
2018-09-12T12:00:18.617Z,18.18
2018-09-12T12:01:18.638Z,18.08
2018-09-12T12:02:18.892Z,17.95
2018-09-12T12:03:18.692Z,17.95
2018-09-12T12:04:18.725Z,17.85
2018-09-12T12:05:18.728Z,17.67
2018-09-12T12:06:18.807Z,17.60
2018-09-12T12:07:18.775Z,17.51
2018-09-12T12:08:18.807Z,17.59
2018-09-12T12:09:18.821Z,17.63
2018-09-12T12:10:18.849Z,17.59
2018-09-12T12:11:18.865Z,17.59
2018-09-12T12:12:18.890Z,17.70
2018-09-12T12:13:18.962Z,17.64
2018-09-12T12:14:18.936Z,17.68
2018-09-12T12:15:18.965Z,17.63
2018-09-12T12:16:18.980Z,17.76
2018-09-12T12:17:19.005Z,17.86
2018-09-12T12:18:19.026Z,18.04
2018-09-12T12:19:19.049Z,17.97
2018-09-12T12:20:19.071Z,18.05
2018-09-12T12:21:19.090Z,18.04
2018-09-12T12:22:19.114Z,18.10
2018-09-12T12:23:19.156Z,18.13
2018-09-12T12:24:19.168Z,17.94
2018-09-12T12:25:19.181Z,18.03
2018-09-12T12:26:19.206Z,17.94
2018-09-12T12:27:19.227Z,17.95
2018-09-12T12:28:19.249Z,17.98
2018-09-12T12:29:19.274Z,18.03
2018-09-12T12:30:19.295Z,17.94
2018-09-12T12:31:19.319Z,17.76
2018-09-12T12:32:19.339Z,17.72
2018-09-12T12:33:19.365Z,17.80
2018-09-12T12:34:19.389Z,17.68
2018-09-12T12:35:19.470Z,17.74
2018-09-12T12:36:19.433Z,17.71
2018-09-12T12:37:19.455Z,17.76
2018-09-12T12:38:19.478Z,17.74
2018-09-12T12:39:19.497Z,17.70
2018-09-12T12:40:19.523Z,17.74
2018-09-12T12:41:19.611Z,17.72
2018-09-12T12:42:19.593Z,17.59
2018-09-12T12:43:19.587Z,17.42
2018-09-12T12:44:19.639Z,17.46
2018-09-12T12:45:19.633Z,17.42
2018-09-12T12:46:19.657Z,17.48
2018-09-12T12:47:19.676Z,17.48
2018-09-12T12:48:19.703Z,17.38
2018-09-12T12:49:19.728Z,17.39
2018-09-12T12:50:19.747Z,17.30
2018-09-12T12:51:19.765Z,17.31
2018-09-12T12:52:19.790Z,17.31